sim
Sign-in with your pilot id or email,
or register
Callsign
Passwort

Schedule Details

Flight Number: DLH2583 (1)
Departure: Edinburgh Airport (EGPH) at 12:25
Arrival: Munich Airport (EDDM) at 14:30
Route: Lufthansa Passenger Schedule. Enter filed route here before submitting Pirep.

Weather Information
Getting current METAR information for EGPH 260220Z 25006KT 9999 BKN041 03/01 Q1014
Getting current METAR information for EDDM 260220Z 27011KT 9999 -RA SCT014 BKN024 08/06 Q1000 NOSIG

Schedule Frequency

Route Map